This is the latest recevied weather packets stored in our database for station/object K9TLD. If no packets are shown the sender has not sent any weather packets the latest 1 day(s).
| Time | Temp. | Humidity | Pressure | Rain* | Wind** | Luminosity | Snow |
|---|---|---|---|---|---|---|---|
| 1778022262 | 15° C | 33% | 1010.1 hPa | 0 mm | 0.45 m/s, 240° | 144 W/m² | - |
| 1778021953 | 14.44° C | 34% | 1010.2 hPa | 0 mm | 0.89 m/s, 229° | 188 W/m² | - |
| 1778021651 | 15° C | 33% | 1009.9 hPa | 0 mm | 0.45 m/s, 234° | 137 W/m² | - |
| 1778021352 | 15° C | 33% | 1010.1 hPa | 0 mm | 0.89 m/s, 258° | 217 W/m² | - |
| 1778021049 | 14.44° C | 35% | 1010 hPa | 0 mm | 0.45 m/s, 234° | 217 W/m² | - |
| 1778020746 | 15° C | 34% | 1009.9 hPa | 0 mm | 0 m/s | 111 W/m² | - |
| 1778020443 | 15° C | 33% | 1010 hPa | 0 mm | 0.89 m/s, 232° | 228 W/m² | - |
| 1778020139 | 15° C | 33% | 1009.8 hPa | 0 mm | 0.45 m/s, 224° | 253 W/m² | - |
| 1778019836 | 15° C | 33% | 1009.9 hPa | 0 mm | 0.45 m/s, 241° | 256 W/m² | - |
| 1778019532 | 15° C | 32% | 1009.8 hPa | 0 mm | 0.89 m/s, 234° | 187 W/m² | - |
| 1778019229 | 15° C | 33% | 1009.8 hPa | 0 mm | 0.89 m/s, 297° | 210 W/m² | - |
| 1778018926 | 15.56° C | 31% | 1010.2 hPa | 0 mm | 1.79 m/s, 238° | 270 W/m² | - |
| 1778018623 | 15° C | 33% | 1009.9 hPa | 0 mm | 0.89 m/s, 231° | 135 W/m² | - |
| 1778018321 | 15.56° C | 31% | 1009.8 hPa | 0 mm | 0.45 m/s, 225° | 245 W/m² | - |
| 1778018019 | 15° C | 33% | 1009.6 hPa | 0 mm | 0.89 m/s, 230° | 240 W/m² | - |
| 1778017717 | 15° C | 32% | 1009.8 hPa | 0 mm | 0.89 m/s, 254° | 298 W/m² | - |
| 1778017414 | 15.56° C | 32% | 1009.4 hPa | 0 mm | 0.89 m/s, 239° | 355 W/m² | - |
| 1778017111 | 15.56° C | 31% | 1009.6 hPa | 0 mm | 0.89 m/s, 230° | 367 W/m² | - |
| 1778016809 | 15.56° C | 32% | 1009.7 hPa | 0 mm | 0.89 m/s, 293° | 377 W/m² | - |
| 1778016504 | 15.56° C | 32% | 1009.7 hPa | 0 mm | 0.89 m/s, 71° | 394 W/m² | - |
| 1778016202 | 15.56° C | 31% | 1009.9 hPa | 0 mm | 0.45 m/s, 238° | 412 W/m² | - |
| 1778015898 | 16.11° C | 33% | 1009.7 hPa | 0 mm | 1.34 m/s, 300° | 431 W/m² | - |
| 1778015596 | 15.56° C | 33% | 1009.7 hPa | 0 mm | 0.89 m/s, 255° | 420 W/m² | - |
| 1778015292 | 16.11° C | 33% | 1009.7 hPa | 0 mm | 1.34 m/s, 238° | 445 W/m² | - |
| 1778014989 | 15.56° C | 34% | 1009.3 hPa | 0 mm | 0.45 m/s, 240° | 352 W/m² | - |
* Rain latest hour (hover to see other rain measurements)
** Current wind speed in m/s (hover to see current wind gust speed)